sensor_id;sensor_type;location;lat;lon;timestamp;pressure;altitude;pressure_sealevel;temperature;humidity
51715;BME280;39115;59.332;18.034;2023-03-11T00:01:46;99466.97;;;-1.79;64.86
51715;BME280;39115;59.332;18.034;2023-03-11T00:04:06;99462.69;;;-1.80;65.03
51715;BME280;39115;59.332;18.034;2023-03-11T00:06:27;99460.25;;;-1.83;65.13
51715;BME280;39115;59.332;18.034;2023-03-11T00:08:47;99461.38;;;-1.87;65.30
51715;BME280;39115;59.332;18.034;2023-03-11T00:11:08;99458.16;;;-1.92;65.45
51715;BME280;39115;59.332;18.034;2023-03-11T00:13:29;99461.03;;;-1.97;65.08
51715;BME280;39115;59.332;18.034;2023-03-11T00:15:51;99465.56;;;-2.00;65.01
51715;BME280;39115;59.332;18.034;2023-03-11T00:18:15;99461.47;;;-2.04;65.21
51715;BME280;39115;59.332;18.034;2023-03-11T00:20:39;99461.47;;;-2.04;65.39
51715;BME280;39115;59.332;18.034;2023-03-11T00:23:00;99465.00;;;-2.05;65.36
51715;BME280;39115;59.332;18.034;2023-03-11T00:25:22;99465.00;;;-2.05;65.15
51715;BME280;39115;59.332;18.034;2023-03-11T00:27:43;99459.88;;;-2.07;65.16
51715;BME280;39115;59.332;18.034;2023-03-11T00:30:04;99463.31;;;-2.07;65.47
51715;BME280;39115;59.332;18.034;2023-03-11T00:32:25;99456.31;;;-2.06;65.26
51715;BME280;39115;59.332;18.034;2023-03-11T00:34:45;99454.81;;;-2.10;65.11
51715;BME280;39115;59.332;18.034;2023-03-11T00:37:07;99454.91;;;-2.12;65.13
51715;BME280;39115;59.332;18.034;2023-03-11T00:39:27;99457.59;;;-2.13;65.19
51715;BME280;39115;59.332;18.034;2023-03-11T00:41:48;99447.34;;;-2.16;65.10
51715;BME280;39115;59.332;18.034;2023-03-11T00:44:08;99451.69;;;-2.17;65.61
51715;BME280;39115;59.332;18.034;2023-03-11T00:46:29;99444.91;;;-2.19;65.26
51715;BME280;39115;59.332;18.034;2023-03-11T00:48:50;99445.81;;;-2.20;65.50
51715;BME280;39115;59.332;18.034;2023-03-11T00:51:14;99446.84;;;-2.23;65.51
51715;BME280;39115;59.332;18.034;2023-03-11T00:53:35;99446.94;;;-2.25;65.53
51715;BME280;39115;59.332;18.034;2023-03-11T00:55:55;99447.19;;;-2.29;65.51
51715;BME280;39115;59.332;18.034;2023-03-11T00:58:16;99447.44;;;-2.34;65.45
51715;BME280;39115;59.332;18.034;2023-03-11T01:00:36;99444.16;;;-2.38;65.69
51715;BME280;39115;59.332;18.034;2023-03-11T01:02:58;99444.25;;;-2.39;65.44
51715;BME280;39115;59.332;18.034;2023-03-11T01:05:21;99436.66;;;-2.44;65.46
51715;BME280;39115;59.332;18.034;2023-03-11T01:07:41;99435.75;;;-2.43;65.32
51715;BME280;39115;59.332;18.034;2023-03-11T01:10:03;99436.56;;;-2.42;65.62
51715;BME280;39115;59.332;18.034;2023-03-11T01:12:24;99437.59;;;-2.45;65.35
51715;BME280;39115;59.332;18.034;2023-03-11T01:14:45;99434.31;;;-2.48;65.23
51715;BME280;39115;59.332;18.034;2023-03-11T01:17:05;99435.31;;;-2.51;65.43
51715;BME280;39115;59.332;18.034;2023-03-11T01:19:26;99433.72;;;-2.53;65.42
51715;BME280;39115;59.332;18.034;2023-03-11T01:21:46;99429.59;;;-2.58;65.49
51715;BME280;39115;59.332;18.034;2023-03-11T01:24:07;99438.34;;;-2.59;65.56
51715;BME280;39115;59.332;18.034;2023-03-11T01:26:27;99435.81;;;-2.60;65.58
51715;BME280;39115;59.332;18.034;2023-03-11T01:28:48;99439.25;;;-2.60;65.24
51715;BME280;39115;59.332;18.034;2023-03-11T01:31:09;99436.66;;;-2.60;65.32
51715;BME280;39115;59.332;18.034;2023-03-11T01:33:29;99430.69;;;-2.62;65.54
51715;BME280;39115;59.332;18.034;2023-03-11T01:35:50;99426.50;;;-2.64;65.31
51715;BME280;39115;59.332;18.034;2023-03-11T01:38:11;99432.63;;;-2.65;65.61
51715;BME280;39115;59.332;18.034;2023-03-11T01:40:36;99421.44;;;-2.67;65.48
51715;BME280;39115;59.332;18.034;2023-03-11T01:42:58;99419.66;;;-2.67;65.71
51715;BME280;39115;59.332;18.034;2023-03-11T01:45:29;99415.38;;;-2.68;65.23
51715;BME280;39115;59.332;18.034;2023-03-11T01:47:52;99407.66;;;-2.70;65.13
51715;BME280;39115;59.332;18.034;2023-03-11T01:50:12;99418.16;;;-2.71;65.39
51715;BME280;39115;59.332;18.034;2023-03-11T01:52:33;99412.09;;;-2.72;65.41
51715;BME280;39115;59.332;18.034;2023-03-11T01:54:54;99407.91;;;-2.74;65.29
51715;BME280;39115;59.332;18.034;2023-03-11T01:57:14;99414.97;;;-2.76;65.48
51715;BME280;39115;59.332;18.034;2023-03-11T01:59:41;99409.16;;;-2.81;65.22
51715;BME280;39115;59.332;18.034;2023-03-11T02:02:24;99412.00;;;-2.86;65.43
51715;BME280;39115;59.332;18.034;2023-03-11T02:04:48;99414.78;;;-2.89;65.53
51715;BME280;39115;59.332;18.034;2023-03-11T02:07:10;99415.84;;;-2.93;65.52
51715;BME280;39115;59.332;18.034;2023-03-11T02:09:31;99409.13;;;-2.97;65.45
51715;BME280;39115;59.332;18.034;2023-03-11T02:11:52;99409.13;;;-2.97;65.71
51715;BME280;39115;59.332;18.034;2023-03-11T02:14:13;99406.59;;;-2.99;65.19
51715;BME280;39115;59.332;18.034;2023-03-11T02:16:34;99413.66;;;-3.01;65.11
51715;BME280;39115;59.332;18.034;2023-03-11T02:18:59;99399.06;;;-3.04;65.18
51715;BME280;39115;59.332;18.034;2023-03-11T02:21:30;99402.63;;;-3.06;65.21
51715;BME280;39115;59.332;18.034;2023-03-11T02:24:10;99399.28;;;-3.08;65.35
51715;BME280;39115;59.332;18.034;2023-03-11T02:26:58;99397.66;;;-3.11;65.55
51715;BME280;39115;59.332;18.034;2023-03-11T02:29:21;99401.13;;;-3.10;65.62
51715;BME280;39115;59.332;18.034;2023-03-11T02:31:42;99403.81;;;-3.12;65.56
51715;BME280;39115;59.332;18.034;2023-03-11T02:34:04;99404.75;;;-3.13;65.22
51715;BME280;39115;59.332;18.034;2023-03-11T02:36:31;99405.56;;;-3.12;65.16
51715;BME280;39115;59.332;18.034;2023-03-11T02:38:52;99401.38;;;-3.15;65.23
51715;BME280;39115;59.332;18.034;2023-03-11T02:41:12;99399.78;;;-3.18;65.46
51715;BME280;39115;59.332;18.034;2023-03-11T02:43:39;99404.97;;;-3.18;64.79
51715;BME280;39115;59.332;18.034;2023-03-11T02:46:01;99399.00;;;-3.20;65.54
51715;BME280;39115;59.332;18.034;2023-03-11T02:48:23;99396.41;;;-3.20;65.26
51715;BME280;39115;59.332;18.034;2023-03-11T02:50:45;99392.28;;;-3.24;65.35
51715;BME280;39115;59.332;18.034;2023-03-11T02:53:07;99388.69;;;-3.21;64.98
51715;BME280;39115;59.332;18.034;2023-03-11T02:55:27;99396.50;;;-3.21;65.37
51715;BME280;39115;59.332;18.034;2023-03-11T02:57:49;99394.81;;;-3.22;65.04
51715;BME280;39115;59.332;18.034;2023-03-11T03:00:10;99393.03;;;-3.22;65.54
51715;BME280;39115;59.332;18.034;2023-03-11T03:02:33;99391.50;;;-3.26;65.42
51715;BME280;39115;59.332;18.034;2023-03-11T03:04:53;99381.19;;;-3.27;65.09
51715;BME280;39115;59.332;18.034;2023-03-11T03:07:14;99387.47;;;-3.31;65.34
51715;BME280;39115;59.332;18.034;2023-03-11T03:09:35;99385.78;;;-3.33;65.32
51715;BME280;39115;59.332;18.034;2023-03-11T03:11:56;99383.94;;;-3.30;65.07
51715;BME280;39115;59.332;18.034;2023-03-11T03:14:16;99380.44;;;-3.29;65.40
51715;BME280;39115;59.332;18.034;2023-03-11T03:16:37;99385.53;;;-3.28;64.74
51715;BME280;39115;59.332;18.034;2023-03-11T03:18:57;99382.84;;;-3.26;65.41
51715;BME280;39115;59.332;18.034;2023-03-11T03:21:18;99388.06;;;-3.26;65.37
51715;BME280;39115;59.332;18.034;2023-03-11T03:23:38;99392.34;;;-3.25;65.34
51715;BME280;39115;59.332;18.034;2023-03-11T03:25:59;99385.44;;;-3.26;65.17
51715;BME280;39115;59.332;18.034;2023-03-11T03:28:20;99388.16;;;-3.28;65.25
51715;BME280;39115;59.332;18.034;2023-03-11T03:30:40;99383.94;;;-3.30;64.99
51715;BME280;39115;59.332;18.034;2023-03-11T03:33:01;99372.84;;;-3.34;65.33
51715;BME280;39115;59.332;18.034;2023-03-11T03:35:22;99376.13;;;-3.30;65.76
51715;BME280;39115;59.332;18.034;2023-03-11T03:37:42;99376.97;;;-3.30;65.23
51715;BME280;39115;59.332;18.034;2023-03-11T03:40:04;99380.34;;;-3.28;65.35
51715;BME280;39115;59.332;18.034;2023-03-11T03:42:27;99377.66;;;-3.26;64.84
51715;BME280;39115;59.332;18.034;2023-03-11T03:44:47;99371.53;;;-3.25;64.92
51715;BME280;39115;59.332;18.034;2023-03-11T03:47:07;99372.44;;;-3.26;65.21
51715;BME280;39115;59.332;18.034;2023-03-11T03:49:28;99364.63;;;-3.26;65.24
51715;BME280;39115;59.332;18.034;2023-03-11T03:51:49;99365.41;;;-3.24;65.34
51715;BME280;39115;59.332;18.034;2023-03-11T03:54:09;99368.78;;;-3.22;64.84
51715;BME280;39115;59.332;18.034;2023-03-11T03:56:30;99350.63;;;-3.24;65.17
51715;BME280;39115;59.332;18.034;2023-03-11T03:58:50;99351.31;;;-3.20;65.02
51715;BME280;39115;59.332;18.034;2023-03-11T04:01:11;99353.97;;;-3.22;64.80
51715;BME280;39115;59.332;18.034;2023-03-11T04:03:32;99352.16;;;-3.20;65.17
51715;BME280;39115;59.332;18.034;2023-03-11T04:06:20;99344.25;;;-3.18;64.84
51715;BME280;39115;59.332;18.034;2023-03-11T04:08:41;99341.59;;;-3.16;64.75
51715;BME280;39115;59.332;18.034;2023-03-11T04:11:02;99344.84;;;-3.13;64.70
51715;BME280;39115;59.332;18.034;2023-03-11T04:13:23;99338.78;;;-3.13;64.88
51715;BME280;39115;59.332;18.034;2023-03-11T04:15:43;99335.94;;;-3.09;65.10
51715;BME280;39115;59.332;18.034;2023-03-11T04:18:04;99334.09;;;-3.07;65.16
51715;BME280;39115;59.332;18.034;2023-03-11T04:20:24;99336.72;;;-3.07;64.97
51715;BME280;39115;59.332;18.034;2023-03-11T04:22:45;99327.88;;;-3.04;64.83
51715;BME280;39115;59.332;18.034;2023-03-11T04:25:06;99331.50;;;-3.07;65.42
51715;BME280;39115;59.332;18.034;2023-03-11T04:27:26;99326.44;;;-3.10;65.13
51715;BME280;39115;59.332;18.034;2023-03-11T04:29:47;99327.22;;;-3.08;65.26
51715;BME280;39115;59.332;18.034;2023-03-11T04:32:07;99323.78;;;-3.08;64.79
51715;BME280;39115;59.332;18.034;2023-03-11T04:34:28;99318.59;;;-3.08;64.86
51715;BME280;39115;59.332;18.034;2023-03-11T04:36:52;99318.50;;;-3.07;64.92
51715;BME280;39115;59.332;18.034;2023-03-11T04:39:14;99310.75;;;-3.08;65.07
51715;BME280;39115;59.332;18.034;2023-03-11T04:41:35;99308.06;;;-3.07;65.06
51715;BME280;39115;59.332;18.034;2023-03-11T04:43:57;99314.19;;;-3.08;64.79
51715;BME280;39115;59.332;18.034;2023-03-11T04:46:18;99313.38;;;-3.08;64.99
51715;BME280;39115;59.332;18.034;2023-03-11T04:48:38;99311.69;;;-3.09;64.78
51715;BME280;39115;59.332;18.034;2023-03-11T04:50:59;99312.75;;;-3.13;64.75
51715;BME280;39115;59.332;18.034;2023-03-11T04:53:20;99305.97;;;-3.16;65.08
51715;BME280;39115;59.332;18.034;2023-03-11T04:55:40;99305.19;;;-3.18;64.90
51715;BME280;39115;59.332;18.034;2023-03-11T04:58:01;99305.28;;;-3.20;64.81
51715;BME280;39115;59.332;18.034;2023-03-11T05:00:22;99302.00;;;-3.23;64.87
51715;BME280;39115;59.332;18.034;2023-03-11T05:02:44;99299.66;;;-3.28;65.03
51715;BME280;39115;59.332;18.034;2023-03-11T05:05:05;99298.06;;;-3.30;65.31
51715;BME280;39115;59.332;18.034;2023-03-11T05:07:26;99293.69;;;-3.30;65.12
51715;BME280;39115;59.332;18.034;2023-03-11T05:09:47;99297.13;;;-3.29;65.15
51715;BME280;39115;59.332;18.034;2023-03-11T05:12:10;99295.31;;;-3.27;65.01
51715;BME280;39115;59.332;18.034;2023-03-11T05:14:31;99305.78;;;-3.29;64.92
51715;BME280;39115;59.332;18.034;2023-03-11T05:16:52;99293.75;;;-3.31;65.09
51715;BME280;39115;59.332;18.034;2023-03-11T05:19:12;99298.06;;;-3.30;65.00
51715;BME280;39115;59.332;18.034;2023-03-11T05:21:51;99297.97;;;-3.29;64.87
51715;BME280;39115;59.332;18.034;2023-03-11T05:24:12;99301.47;;;-3.30;64.77
51715;BME280;39115;59.332;18.034;2023-03-11T05:26:32;99295.34;;;-3.29;64.88
51715;BME280;39115;59.332;18.034;2023-03-11T05:28:53;99297.81;;;-3.26;64.46
51715;BME280;39115;59.332;18.034;2023-03-11T05:31:13;99295.22;;;-3.26;65.04
51715;BME280;39115;59.332;18.034;2023-03-11T05:33:34;99301.34;;;-3.27;65.18
51715;BME280;39115;59.332;18.034;2023-03-11T05:35:55;99292.75;;;-3.29;65.08
51715;BME280;39115;59.332;18.034;2023-03-11T05:38:15;99296.22;;;-3.28;65.06
51715;BME280;39115;59.332;18.034;2023-03-11T05:40:35;99298.88;;;-3.30;64.91
51715;BME280;39115;59.332;18.034;2023-03-11T05:42:56;99294.53;;;-3.29;65.49
51715;BME280;39115;59.332;18.034;2023-03-11T05:45:16;99286.63;;;-3.28;64.68
51715;BME280;39115;59.332;18.034;2023-03-11T05:47:37;99295.88;;;-3.22;64.78
51715;BME280;39115;59.332;18.034;2023-03-11T05:49:58;99293.88;;;-3.17;64.83
51715;BME280;39115;59.332;18.034;2023-03-11T05:52:18;99290.84;;;-3.09;64.79
51715;BME280;39115;59.332;18.034;2023-03-11T05:54:39;99288.06;;;-3.06;64.69
51715;BME280;39115;59.332;18.034;2023-03-11T05:56:59;99293.88;;;-3.01;64.66
51715;BME280;39115;59.332;18.034;2023-03-11T05:59:20;99285.06;;;-2.98;64.58
51715;BME280;39115;59.332;18.034;2023-03-11T06:01:41;99291.19;;;-2.99;64.62
51715;BME280;39115;59.332;18.034;2023-03-11T06:04:02;99278.94;;;-2.97;64.54
51715;BME280;39115;59.332;18.034;2023-03-11T06:06:23;99277.00;;;-2.94;64.64
51715;BME280;39115;59.332;18.034;2023-03-11T06:08:43;99277.56;;;-2.89;64.73
51715;BME280;39115;59.332;18.034;2023-03-11T06:11:10;99275.81;;;-2.88;64.86
51715;BME280;39115;59.332;18.034;2023-03-11T06:13:31;99274.72;;;-2.84;64.71
51715;BME280;39115;59.332;18.034;2023-03-11T06:15:51;99277.06;;;-2.79;64.69
51715;BME280;39115;59.332;18.034;2023-03-11T06:18:12;99272.63;;;-2.77;64.81
51715;BME280;39115;59.332;18.034;2023-03-11T06:20:32;99275.03;;;-2.74;64.61
51715;BME280;39115;59.332;18.034;2023-03-11T06:22:53;99263.59;;;-2.72;64.55
51715;BME280;39115;59.332;18.034;2023-03-11T06:25:14;99266.31;;;-2.73;64.54
51715;BME280;39115;59.332;18.034;2023-03-11T06:27:34;99268.06;;;-2.74;64.48
51715;BME280;39115;59.332;18.034;2023-03-11T06:29:55;99272.28;;;-2.71;64.58
51715;BME280;39115;59.332;18.034;2023-03-11T06:32:15;99274.97;;;-2.73;64.86
51715;BME280;39115;59.332;18.034;2023-03-11T06:34:36;99280.09;;;-2.71;64.62
51715;BME280;39115;59.332;18.034;2023-03-11T06:36:56;99278.25;;;-2.69;64.41
51715;BME280;39115;59.332;18.034;2023-03-11T06:39:18;99276.38;;;-2.67;64.11
51715;BME280;39115;59.332;18.034;2023-03-11T06:41:39;99285.88;;;-2.66;64.38
51715;BME280;39115;59.332;18.034;2023-03-11T06:44:00;99278.97;;;-2.67;64.43
51715;BME280;39115;59.332;18.034;2023-03-11T06:46:22;99275.44;;;-2.66;64.34
51715;BME280;39115;59.332;18.034;2023-03-11T06:48:43;99285.50;;;-2.60;64.01
51715;BME280;39115;59.332;18.034;2023-03-11T06:51:05;99282.00;;;-2.59;63.90
51715;BME280;39115;59.332;18.034;2023-03-11T06:53:27;99283.31;;;-2.51;64.28
51715;BME280;39115;59.332;18.034;2023-03-11T06:56:01;99282.31;;;-2.49;64.28
51715;BME280;39115;59.332;18.034;2023-03-11T06:58:21;99286.59;;;-2.48;63.69
51715;BME280;39115;59.332;18.034;2023-03-11T07:00:42;99280.66;;;-2.50;64.19
51715;BME280;39115;59.332;18.034;2023-03-11T07:03:02;99285.25;;;-2.55;64.12
51715;BME280;39115;59.332;18.034;2023-03-11T07:05:23;99287.03;;;-2.56;63.80
51715;BME280;39115;59.332;18.034;2023-03-11T07:07:44;99289.44;;;-2.52;64.15
51715;BME280;39115;59.332;18.034;2023-03-11T07:10:05;99286.31;;;-2.43;63.75
51715;BME280;39115;59.332;18.034;2023-03-11T07:12:25;99292.81;;;-2.34;63.54
51715;BME280;39115;59.332;18.034;2023-03-11T07:14:46;99293.00;;;-2.23;63.53
51715;BME280;39115;59.332;18.034;2023-03-11T07:17:06;99287.16;;;-2.12;63.58
51715;BME280;39115;59.332;18.034;2023-03-11T07:19:27;99289.13;;;-2.01;63.67
51715;BME280;39115;59.332;18.034;2023-03-11T07:21:47;99287.78;;;-1.93;63.26
51715;BME280;39115;59.332;18.034;2023-03-11T07:24:11;99286.38;;;-1.84;63.55
51715;BME280;39115;59.332;18.034;2023-03-11T07:26:33;99288.56;;;-1.76;63.55
51715;BME280;39115;59.332;18.034;2023-03-11T07:28:55;99288.19;;;-1.70;63.29
51715;BME280;39115;59.332;18.034;2023-03-11T07:31:19;99286.78;;;-1.61;63.36
51715;BME280;39115;59.332;18.034;2023-03-11T07:33:40;99283.59;;;-1.52;63.31
51715;BME280;39115;59.332;18.034;2023-03-11T07:36:05;99276.97;;;-1.43;63.26
51715;BME280;39115;59.332;18.034;2023-03-11T07:38:25;99282.56;;;-1.35;63.21
51715;BME280;39115;59.332;18.034;2023-03-11T07:40:46;99277.91;;;-1.30;63.18
51715;BME280;39115;59.332;18.034;2023-03-11T07:43:07;99278.75;;;-1.29;63.25
51715;BME280;39115;59.332;18.034;2023-03-11T07:45:28;99265.50;;;-1.26;62.96
51715;BME280;39115;59.332;18.034;2023-03-11T07:47:48;99274.16;;;-1.25;63.15
51715;BME280;39115;59.332;18.034;2023-03-11T07:50:09;99270.44;;;-1.21;62.72
51715;BME280;39115;59.332;18.034;2023-03-11T07:52:31;99270.06;;;-1.15;62.82
51715;BME280;39115;59.332;18.034;2023-03-11T07:54:51;99257.16;;;-1.04;62.81
51715;BME280;39115;59.332;18.034;2023-03-11T07:57:12;99268.59;;;-0.92;62.64
51715;BME280;39115;59.332;18.034;2023-03-11T07:59:36;99272.31;;;-0.82;62.53
51715;BME280;39115;59.332;18.034;2023-03-11T08:01:56;99271.91;;;-0.75;62.45
51715;BME280;39115;59.332;18.034;2023-03-11T08:04:17;99264.31;;;-0.66;62.53
51715;BME280;39115;59.332;18.034;2023-03-11T08:06:37;99266.34;;;-0.56;62.56
51715;BME280;39115;59.332;18.034;2023-03-11T08:08:59;99269.16;;;-0.46;62.47
51715;BME280;39115;59.332;18.034;2023-03-11T08:11:20;99267.94;;;-0.41;62.15
51715;BME280;39115;59.332;18.034;2023-03-11T08:13:43;99262.53;;;-0.38;62.26
51715;BME280;39115;59.332;18.034;2023-03-11T08:16:08;99259.50;;;-0.32;61.83
51715;BME280;39115;59.332;18.034;2023-03-11T08:18:29;99260.03;;;-0.26;62.02
51715;BME280;39115;59.332;18.034;2023-03-11T08:20:50;99255.22;;;-0.20;61.94
51715;BME280;39115;59.332;18.034;2023-03-11T08:23:10;99258.91;;;-0.09;61.99
51715;BME280;39115;59.332;18.034;2023-03-11T08:25:31;99255.13;;;-0.05;61.80
51715;BME280;39115;59.332;18.034;2023-03-11T08:27:51;99257.44;;;-0.01;61.87
51715;BME280;39115;59.332;18.034;2023-03-11T08:30:12;99259.56;;;0.07;61.77
51715;BME280;39115;59.332;18.034;2023-03-11T08:32:33;99259.97;;;0.14;61.51
51715;BME280;39115;59.332;18.034;2023-03-11T08:34:53;99252.03;;;0.15;61.49
51715;BME280;39115;59.332;18.034;2023-03-11T08:37:14;99264.06;;;0.18;61.27
51715;BME280;39115;59.332;18.034;2023-03-11T08:39:34;99258.09;;;0.16;61.52
51715;BME280;39115;59.332;18.034;2023-03-11T08:41:55;99268.66;;;0.14;61.36
51715;BME280;39115;59.332;18.034;2023-03-11T08:44:15;99259.03;;;0.15;61.32
51715;BME280;39115;59.332;18.034;2023-03-11T08:46:37;99260.69;;;0.16;61.62
51715;BME280;39115;59.332;18.034;2023-03-11T08:48:58;99261.97;;;0.23;61.69
51715;BME280;39115;59.332;18.034;2023-03-11T08:51:20;99271.91;;;0.31;61.46
51715;BME280;39115;59.332;18.034;2023-03-11T08:53:40;99258.84;;;0.31;61.71
51715;BME280;39115;59.332;18.034;2023-03-11T08:56:01;99257.97;;;0.30;61.82
51715;BME280;39115;59.332;18.034;2023-03-11T08:58:21;99259.22;;;0.38;61.64
51715;BME280;39115;59.332;18.034;2023-03-11T09:00:42;99265.41;;;0.50;61.76
51715;BME280;39115;59.332;18.034;2023-03-11T09:03:03;99259.84;;;0.54;61.64
51715;BME280;39115;59.332;18.034;2023-03-11T09:05:23;99259.53;;;0.59;61.79
51715;BME280;39115;59.332;18.034;2023-03-11T09:07:44;99254.91;;;0.62;61.35
51715;BME280;39115;59.332;18.034;2023-03-11T09:10:05;99255.31;;;0.69;61.46
51715;BME280;39115;59.332;18.034;2023-03-11T09:12:26;99252.88;;;0.79;61.64
51715;BME280;39115;59.332;18.034;2023-03-11T09:14:47;99250.25;;;0.92;61.72
51715;BME280;39115;59.332;18.034;2023-03-11T09:17:08;99247.91;;;1.00;61.17
51715;BME280;39115;59.332;18.034;2023-03-11T09:19:31;99239.34;;;1.09;61.44
51715;BME280;39115;59.332;18.034;2023-03-11T09:21:51;99243.59;;;1.23;61.32
51715;BME280;39115;59.332;18.034;2023-03-11T09:24:12;99238.31;;;1.36;60.99
51715;BME280;39115;59.332;18.034;2023-03-11T09:26:32;99240.88;;;1.49;60.70
51715;BME280;39115;59.332;18.034;2023-03-11T09:28:53;99245.91;;;1.64;60.56
51715;BME280;39115;59.332;18.034;2023-03-11T09:31:14;99242.97;;;1.68;60.10
51715;BME280;39115;59.332;18.034;2023-03-11T09:33:39;99242.28;;;1.78;60.49
51715;BME280;39115;59.332;18.034;2023-03-11T09:36:00;99243.75;;;1.93;60.00
51715;BME280;39115;59.332;18.034;2023-03-11T09:38:20;99239.84;;;2.10;59.95
51715;BME280;39115;59.332;18.034;2023-03-11T09:50:37;99237.34;;;2.31;59.22
51715;BME280;39115;59.332;18.034;2023-03-11T09:52:55;99237.94;;;2.24;59.26
51715;BME280;39115;59.332;18.034;2023-03-11T09:55:38;99239.84;;;2.21;59.28
51715;BME280;39115;59.332;18.034;2023-03-11T09:58:07;99228.84;;;2.16;59.10
51715;BME280;39115;59.332;18.034;2023-03-11T10:00:29;99224.09;;;2.10;59.00
51715;BME280;39115;59.332;18.034;2023-03-11T10:02:51;99229.56;;;2.07;58.71
51715;BME280;39115;59.332;18.034;2023-03-11T10:05:26;99227.66;;;2.09;59.17
51715;BME280;39115;59.332;18.034;2023-03-11T10:07:56;99231.00;;;2.11;59.07
51715;BME280;39115;59.332;18.034;2023-03-11T10:10:17;99232.56;;;2.14;58.97
51715;BME280;39115;59.332;18.034;2023-03-11T10:12:59;99228.38;;;2.11;58.96
51715;BME280;39115;59.332;18.034;2023-03-11T10:26:47;99235.88;;;1.93;59.49
51715;BME280;39115;59.332;18.034;2023-03-11T10:31:47;99229.28;;;1.87;59.00
51715;BME280;39115;59.332;18.034;2023-03-11T10:37:10;99220.56;;;1.76;58.80
51715;BME280;39115;59.332;18.034;2023-03-11T10:39:33;99224.72;;;1.78;58.78
51715;BME280;39115;59.332;18.034;2023-03-11T10:41:59;99227.28;;;1.91;58.87
51715;BME280;39115;59.332;18.034;2023-03-11T10:44:31;99216.69;;;2.04;58.31
51715;BME280;39115;59.332;18.034;2023-03-11T10:46:53;99224.69;;;2.14;58.66
51715;BME280;39115;59.332;18.034;2023-03-11T10:49:15;99220.28;;;2.26;58.25
51715;BME280;39115;59.332;18.034;2023-03-11T10:51:36;99218.25;;;2.29;58.09
51715;BME280;39115;59.332;18.034;2023-03-11T10:53:58;99214.19;;;2.36;57.77
51715;BME280;39115;59.332;18.034;2023-03-11T10:56:37;99211.44;;;2.38;57.94
51715;BME280;39115;59.332;18.034;2023-03-11T10:58:59;99208.47;;;2.31;57.70
51715;BME280;39115;59.332;18.034;2023-03-11T11:01:20;99212.88;;;2.31;57.86
51715;BME280;39115;59.332;18.034;2023-03-11T11:03:46;99209.53;;;2.40;57.54
51715;BME280;39115;59.332;18.034;2023-03-11T11:08:39;99203.78;;;2.58;57.23
51715;BME280;39115;59.332;18.034;2023-03-11T11:11:01;99200.22;;;2.59;57.13
51715;BME280;39115;59.332;18.034;2023-03-11T11:13:24;99186.72;;;2.52;57.38
51715;BME280;39115;59.332;18.034;2023-03-11T11:15:59;99185.75;;;2.53;57.31
51715;BME280;39115;59.332;18.034;2023-03-11T11:23:48;99184.31;;;2.49;57.37
51715;BME280;39115;59.332;18.034;2023-03-11T11:26:18;99193.28;;;2.58;57.11
51715;BME280;39115;59.332;18.034;2023-03-11T11:28:39;99189.22;;;2.65;56.80
51715;BME280;39115;59.332;18.034;2023-03-11T11:31:05;99192.06;;;2.73;56.93
51715;BME280;39115;59.332;18.034;2023-03-11T11:33:41;99195.63;;;2.83;56.90
51715;BME280;39115;59.332;18.034;2023-03-11T11:36:13;99187.72;;;2.95;56.76
51715;BME280;39115;59.332;18.034;2023-03-11T11:38:34;99188.56;;;2.95;56.62
51715;BME280;39115;59.332;18.034;2023-03-11T11:40:57;99185.78;;;2.97;56.47
51715;BME280;39115;59.332;18.034;2023-03-11T11:43:25;99189.75;;;2.91;56.47
51715;BME280;39115;59.332;18.034;2023-03-11T11:45:56;99193.09;;;2.93;56.61
51715;BME280;39115;59.332;18.034;2023-03-11T11:48:30;99187.09;;;3.03;56.37
51715;BME280;39115;59.332;18.034;2023-03-11T11:50:56;99180.63;;;3.07;56.21
51715;BME280;39115;59.332;18.034;2023-03-11T11:53:42;99190.53;;;3.14;56.39
51715;BME280;39115;59.332;18.034;2023-03-11T11:56:06;99175.38;;;3.07;56.19
51715;BME280;39115;59.332;18.034;2023-03-11T11:58:27;99179.44;;;3.11;56.16
51715;BME280;39115;59.332;18.034;2023-03-11T12:01:07;99176.13;;;3.30;56.19
51715;BME280;39115;59.332;18.034;2023-03-11T12:11:34;99165.34;;;3.33;55.84
51715;BME280;39115;59.332;18.034;2023-03-11T12:14:01;99166.09;;;3.24;55.74
51715;BME280;39115;59.332;18.034;2023-03-11T12:19:25;99169.50;;;3.14;55.59
51715;BME280;39115;59.332;18.034;2023-03-11T12:27:46;99152.25;;;3.43;55.46
51715;BME280;39115;59.332;18.034;2023-03-11T12:30:17;99161.44;;;3.48;55.37
51715;BME280;39115;59.332;18.034;2023-03-11T12:32:44;99161.44;;;3.48;55.36
51715;BME280;39115;59.332;18.034;2023-03-11T12:35:25;99162.00;;;3.52;55.37
51715;BME280;39115;59.332;18.034;2023-03-11T12:38:15;99160.13;;;3.43;55.59
51715;BME280;39115;59.332;18.034;2023-03-11T12:43:01;99167.19;;;3.21;55.28
51715;BME280;39115;59.332;18.034;2023-03-11T12:45:48;99151.56;;;3.08;55.46
51715;BME280;39115;59.332;18.034;2023-03-11T12:50:57;99151.47;;;3.10;55.01
51715;BME280;39115;59.332;18.034;2023-03-11T12:53:19;99143.00;;;3.06;55.11
51715;BME280;39115;59.332;18.034;2023-03-11T12:55:57;99151.25;;;3.02;55.24
51715;BME280;39115;59.332;18.034;2023-03-11T12:58:31;99143.16;;;2.93;55.26
51715;BME280;39115;59.332;18.034;2023-03-11T13:01:09;99142.81;;;2.87;55.05
51715;BME280;39115;59.332;18.034;2023-03-11T13:03:56;99144.97;;;2.81;55.22
51715;BME280;39115;59.332;18.034;2023-03-11T13:08:52;99142.88;;;2.64;55.37
51715;BME280;39115;59.332;18.034;2023-03-11T13:11:28;99143.97;;;2.61;55.59
51715;BME280;39115;59.332;18.034;2023-03-11T13:14:18;99136.66;;;2.53;55.60
51715;BME280;39115;59.332;18.034;2023-03-11T13:16:42;99135.94;;;2.63;55.16
51715;BME280;39115;59.332;18.034;2023-03-11T13:19:46;99131.97;;;2.80;55.20
51715;BME280;39115;59.332;18.034;2023-03-11T13:25:24;99136.53;;;2.66;55.12
51715;BME280;39115;59.332;18.034;2023-03-11T13:27:46;99137.38;;;2.67;54.99
51715;BME280;39115;59.332;18.034;2023-03-11T13:30:15;99131.28;;;2.66;55.07
51715;BME280;39115;59.332;18.034;2023-03-11T13:33:01;99125.91;;;2.68;55.00
51715;BME280;39115;59.332;18.034;2023-03-11T13:40:51;99128.63;;;2.78;55.11